Time;durP1;ratioP1;P1;durP2;ratioP2;P2;SDS_P1;SDS_P2;PMS_P1;PMS_P2;Temp;Humidity;BMP_temperature;BMP_pressure;BME280_temperature;BME280_humidity;BME280_pressure;Samples;Min_cycle;Max_cycle;Signal;HPM_P1;HPM_P2
2023/12/19 00:01:00;;;;;;;16.67;12.87;;;;;21.40;101464.00;;;;2069046;28;20837;-72
2023/12/19 00:02:00;;;;;;;17.37;13.30;;;;;21.40;101456.00;;;;2079619;28;20731;-72
2023/12/19 00:03:00;;;;;;;16.77;12.97;;;;;21.40;101454.00;;;;2081269;28;20217;-72
2023/12/19 00:04:01;;;;;;;16.57;13.50;;;;;21.40;101446.00;;;;2079024;28;20202;-72
2023/12/19 00:05:01;;;;;;;15.33;12.77;;;;;21.40;101448.00;;;;2081027;28;20278;-72
2023/12/19 00:06:01;;;;;;;15.97;12.40;;;;;21.40;101450.00;;;;2071202;28;23182;-72
2023/12/19 00:07:02;;;;;;;15.67;12.83;;;;;21.40;101466.00;;;;2081091;28;20220;-72
2023/12/19 00:08:03;;;;;;;15.70;12.20;;;;;21.40;101457.00;;;;2076787;28;20231;-72
2023/12/19 00:09:03;;;;;;;16.23;13.30;;;;;21.40;101470.00;;;;2080656;28;20599;-72
2023/12/19 00:10:04;;;;;;;17.90;13.07;;;;;21.40;101403.00;;;;2081052;28;20217;-72
2023/12/19 00:11:04;;;;;;;14.83;11.70;;;;;21.40;101463.00;;;;2070814;28;20292;-72
2023/12/19 00:12:06;;;;;;;15.30;11.80;;;;;21.40;101464.00;;;;2081124;28;20507;-72
2023/12/19 00:13:07;;;;;;;14.63;11.55;;;;;21.40;101456.00;;;;2079784;28;20260;-72
2023/12/19 00:14:07;;;;;;;16.30;12.10;;;;;21.40;101457.00;;;;2080199;28;20308;-72
2023/12/19 00:15:08;;;;;;;15.53;12.10;;;;;21.30;101458.00;;;;2080384;28;20212;-72
2023/12/19 00:16:08;;;;;;;15.80;12.27;;;;;21.40;101404.00;;;;2071619;28;20710;-72
2023/12/19 00:17:08;;;;;;;12.90;11.13;;;;;21.30;101469.00;;;;2081163;28;20215;-72
2023/12/19 00:18:09;;;;;;;15.50;12.03;;;;;21.30;101463.00;;;;2078916;28;20221;-72
2023/12/19 00:19:09;;;;;;;15.13;11.07;;;;;21.30;101465.00;;;;2078313;28;20267;-72
2023/12/19 00:20:10;;;;;;;14.47;11.00;;;;;21.30;101452.00;;;;2079564;28;20226;-72
2023/12/19 00:21:10;;;;;;;14.20;11.80;;;;;21.30;101452.00;;;;2071297;28;20292;-72
2023/12/19 00:22:10;;;;;;;15.60;11.33;;;;;21.30;101449.00;;;;2080235;28;20267;-72
2023/12/19 00:23:11;;;;;;;13.40;10.73;;;;;21.30;101439.00;;;;2081023;28;20236;-72
2023/12/19 00:24:11;;;;;;;12.77;10.87;;;;;21.30;101438.00;;;;2079254;28;20206;-72
2023/12/19 00:25:12;;;;;;;14.90;11.33;;;;;21.30;101441.00;;;;2080259;28;20205;-72
2023/12/19 00:26:12;;;;;;;13.13;10.70;;;;;21.30;101442.00;;;;2070503;28;20735;-72
2023/12/19 00:27:13;;;;;;;14.43;10.53;;;;;21.30;101432.00;;;;2079414;28;20587;-72
2023/12/19 00:28:13;;;;;;;13.53;11.47;;;;;21.30;101454.00;;;;2083296;28;20461;-72
2023/12/19 00:29:13;;;;;;;12.40;10.13;;;;;21.30;101451.00;;;;2078120;28;20267;-72
2023/12/19 00:30:14;;;;;;;11.77;10.47;;;;;21.30;101459.00;;;;2084618;28;20217;-72
2023/12/19 00:31:22;;;;;;;12.70;10.63;;;;;21.30;101453.00;;;;2071294;28;20217;-72
2023/12/19 00:32:22;;;;;;;11.40;10.13;;;;;21.30;101462.00;;;;2079724;28;20220;-72
2023/12/19 00:33:22;;;;;;;13.77;10.27;;;;;21.30;101445.00;;;;2076951;28;20904;-72
2023/12/19 00:34:23;;;;;;;13.70;10.40;;;;;21.30;101443.00;;;;2080505;28;20632;-72
2023/12/19 00:35:23;;;;;;;12.90;9.83;;;;;21.30;101447.00;;;;2071438;28;20202;-72
2023/12/19 00:36:23;;;;;;;15.40;10.80;;;;;21.30;101437.00;;;;2082807;28;20298;-72
2023/12/19 00:37:24;;;;;;;15.60;10.80;;;;;21.30;101457.00;;;;2083228;28;20240;-72
2023/12/19 00:38:24;;;;;;;11.53;9.20;;;;;21.30;101451.00;;;;2080134;28;20296;-72
2023/12/19 00:39:26;;;;;;;12.17;9.90;;;;;21.30;101450.00;;;;2080657;28;20210;-72
2023/12/19 00:40:26;;;;;;;10.57;9.00;;;;;21.20;101442.00;;;;2071327;28;20216;-72
2023/12/19 00:41:26;;;;;;;12.73;10.07;;;;;21.30;101449.00;;;;2080426;28;20212;-72
2023/12/19 00:42:27;;;;;;;14.10;10.37;;;;;21.30;101446.00;;;;2080903;28;20209;-72
2023/12/19 00:43:27;;;;;;;12.13;9.23;;;;;21.20;101442.00;;;;2077807;28;20219;-72
2023/12/19 00:44:27;;;;;;;13.33;9.30;;;;;21.20;101448.00;;;;2080233;28;20225;-72
2023/12/19 00:45:28;;;;;;;12.13;9.10;;;;;21.10;101447.00;;;;2070563;28;20213;-72
2023/12/19 00:46:28;;;;;;;11.50;9.00;;;;;21.20;101452.00;;;;2080829;28;20209;-72
2023/12/19 00:47:28;;;;;;;11.27;9.23;;;;;21.20;101442.00;;;;2080047;28;20225;-72
2023/12/19 00:48:31;;;;;;;10.30;8.43;;;;;21.20;101452.00;;;;2081462;28;20217;-72
2023/12/19 00:49:31;;;;;;;14.63;9.48;;;;;21.20;101449.00;;;;2082049;28;20209;-72
2023/12/19 00:50:32;;;;;;;11.93;9.20;;;;;21.20;101453.00;;;;2070740;28;20229;-72
2023/12/19 00:51:32;;;;;;;11.23;8.50;;;;;21.20;101454.00;;;;2079099;28;20214;-72
2023/12/19 00:52:32;;;;;;;13.80;8.83;;;;;21.20;101451.00;;;;2080102;28;20214;-72
2023/12/19 00:53:32;;;;;;;11.20;9.00;;;;;21.20;101450.00;;;;2080640;28;20240;-72
2023/12/19 00:54:33;;;;;;;11.00;8.17;;;;;21.20;101448.00;;;;2079487;28;20221;-72
2023/12/19 00:55:33;;;;;;;10.23;8.90;;;;;21.20;101465.00;;;;2070537;28;20217;-72
2023/12/19 00:56:33;;;;;;;9.60;7.93;;;;;21.20;101457.00;;;;2080912;28;20254;-72
2023/12/19 00:57:34;;;;;;;10.77;8.20;;;;;21.20;101450.00;;;;2079871;28;20216;-72
2023/12/19 00:58:35;;;;;;;9.90;8.53;;;;;21.20;101445.00;;;;2080664;28;20214;-72
2023/12/19 00:59:36;;;;;;;11.82;8.85;;;;;21.20;101452.00;;;;2078746;28;20224;-72
2023/12/19 01:00:36;;;;;;;9.20;8.20;;;;;21.20;101448.00;;;;2077815;28;20410;-72
2023/12/19 01:01:37;;;;;;;10.00;8.37;;;;;21.20;101452.00;;;;2081648;28;20218;-72
2023/12/19 01:02:37;;;;;;;10.40;7.83;;;;;21.10;101457.00;;;;2080136;28;20229;-72
2023/12/19 01:03:38;;;;;;;9.60;8.20;;;;;21.20;101453.00;;;;2080618;28;20217;-72
2023/12/19 01:04:38;;;;;;;9.77;8.15;;;;;21.20;101457.00;;;;2077951;28;20304;-72
2023/12/19 01:05:39;;;;;;;10.50;8.37;;;;;21.20;101452.00;;;;2070990;28;20861;-72
2023/12/19 01:06:39;;;;;;;9.80;7.60;;;;;21.20;101451.00;;;;2080352;28;20225;-72
2023/12/19 01:07:39;;;;;;;8.63;7.17;;;;;21.20;101446.00;;;;2079729;28;20219;-72
2023/12/19 01:08:40;;;;;;;10.70;8.30;;;;;21.10;101442.00;;;;2080657;28;20222;-72
2023/12/19 01:09:40;;;;;;;8.63;7.67;;;;;21.10;101446.00;;;;2079856;28;20287;-72
2023/12/19 01:10:41;;;;;;;8.67;7.50;;;;;21.10;101438.00;;;;2069596;28;20313;-72
2023/12/19 01:11:41;;;;;;;9.43;7.00;;;;;21.10;101446.00;;;;2076266;28;20209;-71
2023/12/19 01:12:41;;;;;;;11.23;8.60;;;;;21.10;101443.00;;;;2080561;28;20669;-72
2023/12/19 01:13:42;;;;;;;8.57;7.30;;;;;21.10;101443.00;;;;2080498;28;20780;-72
2023/12/19 01:14:42;;;;;;;11.63;7.27;;;;;21.10;101442.00;;;;2079912;28;20256;-72
2023/12/19 01:15:42;;;;;;;8.40;7.10;;;;;21.10;101442.00;;;;2071022;28;20225;-72
2023/12/19 01:16:43;;;;;;;10.07;7.90;;;;;21.10;101438.00;;;;2078055;28;20216;-72
2023/12/19 01:17:43;;;;;;;8.00;6.67;;;;;21.10;101435.00;;;;2080291;28;20221;-72
2023/12/19 01:18:43;;;;;;;10.73;7.47;;;;;21.10;101425.00;;;;2079897;28;20220;-72
2023/12/19 01:19:44;;;;;;;8.27;6.97;;;;;21.10;101434.00;;;;2079135;28;20222;-72
2023/12/19 01:20:45;;;;;;;11.97;7.60;;;;;20.90;101415.00;;;;2070730;28;20283;-72
2023/12/19 01:21:45;;;;;;;9.90;7.32;;;;;21.10;101416.00;;;;2075986;28;20684;-72
2023/12/19 01:22:45;;;;;;;9.13;7.40;;;;;21.10;101414.00;;;;2080400;28;20209;-72
2023/12/19 01:23:46;;;;;;;8.73;7.53;;;;;21.10;101403.00;;;;2078916;28;20219;-72
2023/12/19 01:24:46;;;;;;;7.93;6.67;;;;;21.10;101408.00;;;;2078674;28;20621;-72
2023/12/19 01:25:46;;;;;;;7.40;6.50;;;;;21.10;101410.00;;;;2070138;28;20213;-72
2023/12/19 01:26:49;;;;;;;7.70;6.83;;;;;21.00;101411.00;;;;2080210;28;20245;-72
2023/12/19 01:27:49;;;;;;;9.43;7.22;;;;;21.00;101408.00;;;;2078079;28;20233;-72
2023/12/19 01:28:49;;;;;;;7.47;6.30;;;;;21.10;101401.00;;;;2079251;28;20649;-72
2023/12/19 01:29:50;;;;;;;8.20;6.80;;;;;21.00;101405.00;;;;2080202;28;20230;-72
2023/12/19 01:30:50;;;;;;;7.77;6.27;;;;;21.00;101402.00;;;;2070386;28;20209;-72
2023/12/19 01:31:51;;;;;;;8.20;7.13;;;;;21.10;101402.00;;;;2079912;28;20202;-72
2023/12/19 01:32:51;;;;;;;8.40;7.00;;;;;21.00;101406.00;;;;2077845;28;20272;-72
2023/12/19 01:33:52;;;;;;;6.93;6.23;;;;;21.00;101399.00;;;;2080388;28;20462;-72
2023/12/19 01:34:53;;;;;;;8.17;6.50;;;;;21.10;101405.00;;;;2080054;28;20213;-72
2023/12/19 01:35:53;;;;;;;7.28;5.85;;;;;21.00;101400.00;;;;2069785;28;20217;-72
2023/12/19 01:36:54;;;;;;;7.07;6.20;;;;;21.00;101406.00;;;;2080098;28;20571;-71
2023/12/19 01:37:55;;;;;;;8.20;6.90;;;;;21.00;101406.00;;;;2075608;28;20210;-71
2023/12/19 01:38:55;;;;;;;8.17;6.63;;;;;21.00;101406.00;;;;2079914;28;20616;-72
2023/12/19 01:39:55;;;;;;;7.13;6.27;;;;;21.00;101395.00;;;;2079207;28;22050;-72
2023/12/19 01:40:56;;;;;;;7.67;6.33;;;;;21.00;101397.00;;;;2069916;28;20676;-72
2023/12/19 01:41:56;;;;;;;6.40;5.80;;;;;21.00;101392.00;;;;2080126;28;20895;-69
2023/12/19 01:42:58;;;;;;;7.27;5.90;;;;;21.00;101387.00;;;;2080372;28;20201;-69
2023/12/19 01:43:58;;;;;;;6.63;5.82;;;;;21.00;101392.00;;;;2079133;28;20209;-69
2023/12/19 01:45:12;;;;;;;8.17;5.97;;;;;21.00;101383.00;;;;2079777;28;20216;-69
2023/12/19 01:46:14;;;;;;;7.55;6.35;;;;;21.00;101384.00;;;;2070707;28;20209;-69
2023/12/19 01:47:15;;;;;;;7.03;5.97;;;;;21.00;101389.00;;;;2079044;28;20608;-69
2023/12/19 01:48:16;;;;;;;7.37;6.00;;;;;21.00;101385.00;;;;2079322;28;20283;-69
2023/12/19 01:49:16;;;;;;;7.80;6.20;;;;;21.00;101389.00;;;;2077062;28;20835;-69
2023/12/19 01:50:16;;;;;;;6.60;5.23;;;;;21.00;101383.00;;;;2077915;28;20563;-70
2023/12/19 01:51:17;;;;;;;6.27;5.40;;;;;21.00;101385.00;;;;2069412;28;20752;-70
2023/12/19 01:52:17;;;;;;;6.70;5.83;;;;;21.00;101382.00;;;;2066429;28;20745;-69
2023/12/19 01:53:18;;;;;;;7.17;5.50;;;;;21.00;101381.00;;;;2079453;28;20233;-69
2023/12/19 01:54:18;;;;;;;6.20;5.37;;;;;21.00;101381.00;;;;2075431;28;20228;-69
2023/12/19 01:55:18;;;;;;;6.63;5.53;;;;;21.00;101377.00;;;;2071389;28;20218;-69
2023/12/19 01:56:19;;;;;;;6.13;5.50;;;;;21.00;101341.00;;;;2061021;28;20217;-69
2023/12/19 01:57:19;;;;;;;5.93;5.03;;;;;21.00;101386.00;;;;2069572;28;20229;-69
2023/12/19 01:58:20;;;;;;;6.37;5.40;;;;;21.00;101251.00;;;;2079315;28;20225;-69
2023/12/19 01:59:20;;;;;;;6.03;5.43;;;;;21.00;101380.00;;;;2070985;28;20623;-69
2023/12/19 02:00:21;;;;;;;7.37;5.13;;;;;21.00;101386.00;;;;2072975;28;20245;-69
2023/12/19 02:01:21;;;;;;;6.60;5.40;;;;;21.00;101380.00;;;;2078507;28;20224;-69
2023/12/19 02:02:22;;;;;;;6.70;5.37;;;;;21.00;101380.00;;;;2083733;28;20209;-69
2023/12/19 02:03:22;;;;;;;6.37;5.40;;;;;21.00;101378.00;;;;2080035;28;20210;-69
2023/12/19 02:04:23;;;;;;;6.53;5.60;;;;;21.00;101375.00;;;;2079397;28;20881;-69
2023/12/19 02:05:24;;;;;;;6.53;5.57;;;;;20.90;101380.00;;;;2069893;28;20220;-69
2023/12/19 02:06:24;;;;;;;8.32;6.32;;;;;20.90;101316.00;;;;2078884;28;20221;-69
2023/12/19 02:07:24;;;;;;;7.20;6.07;;;;;20.90;101370.00;;;;2075102;28;20295;-69
2023/12/19 02:08:28;;;;;;;5.47;4.80;;;;;20.90;101366.00;;;;2079194;28;20221;-69
2023/12/19 02:09:28;;;;;;;6.20;5.60;;;;;20.90;101372.00;;;;2079173;28;20232;-69
2023/12/19 02:10:29;;;;;;;5.37;4.87;;;;;20.90;101365.00;;;;2069592;28;20221;-70
2023/12/19 02:11:29;;;;;;;5.77;5.00;;;;;20.90;101364.00;;;;2078913;28;20217;-69
2023/12/19 02:12:29;;;;;;;6.07;5.30;;;;;20.90;101367.00;;;;2079378;28;20225;-69
2023/12/19 02:13:30;;;;;;;5.80;5.00;;;;;20.90;101367.00;;;;2079437;28;20744;-69
2023/12/19 02:14:30;;;;;;;6.97;5.07;;;;;20.90;101368.00;;;;2079436;28;20214;-69
2023/12/19 02:15:31;;;;;;;7.13;5.53;;;;;20.90;101373.00;;;;2070466;28;20220;-70
2023/12/19 02:16:31;;;;;;;6.60;5.17;;;;;20.90;101374.00;;;;2079680;28;20213;-69
2023/12/19 02:17:31;;;;;;;5.63;4.73;;;;;20.90;101381.00;;;;2079978;28;20236;-69
2023/12/19 02:18:32;;;;;;;6.13;5.03;;;;;20.90;101375.00;;;;2079219;28;20218;-69
2023/12/19 02:19:32;;;;;;;5.80;4.70;;;;;20.90;101380.00;;;;2079748;28;20225;-69
2023/12/19 02:20:32;;;;;;;5.90;5.30;;;;;20.90;101372.00;;;;2070076;28;20220;-70
2023/12/19 02:21:34;;;;;;;5.20;4.40;;;;;20.90;101370.00;;;;2079553;28;20214;-69
2023/12/19 02:22:34;;;;;;;6.43;5.63;;;;;20.90;101370.00;;;;2079990;28;20214;-69
2023/12/19 02:23:34;;;;;;;5.00;4.50;;;;;20.90;101361.00;;;;2079437;28;20890;-70
2023/12/19 02:24:35;;;;;;;6.73;4.90;;;;;20.90;101364.00;;;;2080128;28;20217;-70
2023/12/19 02:25:35;;;;;;;4.97;4.40;;;;;20.90;101348.00;;;;2069736;28;20245;-69
2023/12/19 02:26:36;;;;;;;5.13;4.63;;;;;20.90;101357.00;;;;2077759;28;20265;-69
2023/12/19 02:27:36;;;;;;;5.27;4.30;;;;;20.90;101355.00;;;;2079190;28;20209;-69
2023/12/19 02:28:36;;;;;;;5.67;5.00;;;;;20.90;101356.00;;;;2080152;28;20702;-69
2023/12/19 02:29:37;;;;;;;5.30;4.27;;;;;20.90;101195.00;;;;2080136;28;20217;-70
2023/12/19 02:30:37;;;;;;;5.70;4.80;;;;;20.90;101291.00;;;;2067638;28;20224;-70
2023/12/19 02:31:38;;;;;;;5.60;4.70;;;;;20.90;101344.00;;;;2077125;28;20677;-69
2023/12/19 02:32:38;;;;;;;5.33;4.60;;;;;20.90;101332.00;;;;2078643;28;20237;-69
2023/12/19 02:33:39;;;;;;;6.50;4.70;;;;;20.90;101330.00;;;;2079437;28;20249;-70
2023/12/19 02:34:39;;;;;;;6.10;5.10;;;;;20.80;101331.00;;;;2079930;28;20256;-69
2023/12/19 02:35:39;;;;;;;5.67;5.03;;;;;20.80;101331.00;;;;2073689;28;20949;-69
2023/12/19 02:36:40;;;;;;;6.17;5.23;;;;;20.90;101327.00;;;;2089288;28;20220;-69
2023/12/19 02:37:41;;;;;;;4.87;3.83;;;;;20.80;101323.00;;;;2085050;28;20257;-70
2023/12/19 02:38:41;;;;;;;5.82;4.80;;;;;20.80;101321.00;;;;2081118;28;20220;-69
2023/12/19 02:39:42;;;;;;;5.20;4.33;;;;;20.80;101321.00;;;;2079174;28;20252;-69
2023/12/19 02:40:42;;;;;;;5.57;4.40;;;;;20.80;101324.00;;;;2069994;28;20217;-70
2023/12/19 02:41:42;;;;;;;5.77;4.60;;;;;20.80;101312.00;;;;2080067;28;20272;-69
2023/12/19 02:42:43;;;;;;;5.70;4.93;;;;;20.80;101313.00;;;;2078735;28;20244;-69
2023/12/19 02:43:43;;;;;;;5.73;5.10;;;;;20.80;101314.00;;;;2078903;28;20214;-69
2023/12/19 02:44:43;;;;;;;6.30;4.67;;;;;20.80;101326.00;;;;2077603;28;20208;-68
2023/12/19 02:45:44;;;;;;;6.07;4.70;;;;;20.80;101317.00;;;;2069934;28;20226;-72
2023/12/19 02:46:44;;;;;;;6.40;4.70;;;;;20.80;101315.00;;;;2079550;28;20240;-72
2023/12/19 02:47:44;;;;;;;5.97;5.00;;;;;20.80;101318.00;;;;2079957;28;20213;-72
2023/12/19 02:48:44;;;;;;;6.33;4.97;;;;;20.80;101317.00;;;;2078972;28;20217;-72
2023/12/19 02:49:45;;;;;;;5.73;4.77;;;;;20.80;101310.00;;;;2084747;28;20278;-72
2023/12/19 02:50:45;;;;;;;5.80;4.77;;;;;20.80;101325.00;;;;2071723;28;20221;-72
2023/12/19 02:51:45;;;;;;;4.90;4.27;;;;;20.80;101307.00;;;;2081920;28;20217;-72
2023/12/19 02:52:46;;;;;;;6.67;5.30;;;;;20.80;101307.00;;;;2080038;28;20205;-72
2023/12/19 02:53:46;;;;;;;5.83;4.50;;;;;20.80;101309.00;;;;2079994;28;20206;-72
2023/12/19 02:54:47;;;;;;;5.40;4.50;;;;;20.70;101316.00;;;;2081031;28;20292;-72
2023/12/19 02:55:47;;;;;;;5.07;4.27;;;;;20.80;101316.00;;;;2069660;28;20217;-72
2023/12/19 02:56:47;;;;;;;5.10;4.43;;;;;20.80;101282.00;;;;2082037;28;20218;-72
2023/12/19 02:57:48;;;;;;;5.73;4.80;;;;;20.80;101298.00;;;;2080360;28;20241;-72
2023/12/19 02:58:48;;;;;;;6.00;4.60;;;;;20.80;101291.00;;;;2078669;28;20217;-72
2023/12/19 02:59:48;;;;;;;5.17;4.67;;;;;20.80;101297.00;;;;2079584;28;20229;-72
2023/12/19 03:00:49;;;;;;;5.23;4.53;;;;;20.80;101302.00;;;;2070263;28;20237;-72
2023/12/19 03:01:49;;;;;;;5.43;4.63;;;;;20.80;101303.00;;;;2079647;28;20267;-72
2023/12/19 03:02:50;;;;;;;5.50;4.43;;;;;20.80;101300.00;;;;2079909;28;20216;-72
2023/12/19 03:03:50;;;;;;;6.43;4.83;;;;;20.80;101301.00;;;;2079946;28;20213;-72
2023/12/19 03:04:50;;;;;;;5.13;4.40;;;;;20.80;101293.00;;;;2078641;28;20260;-72
2023/12/19 03:05:51;;;;;;;4.93;4.13;;;;;20.80;101291.00;;;;2070278;28;20214;-72
2023/12/19 03:06:51;;;;;;;4.60;3.70;;;;;20.80;101290.00;;;;2077089;28;20255;-72
2023/12/19 03:07:51;;;;;;;5.07;4.03;;;;;20.80;101291.00;;;;2079381;28;20210;-72
2023/12/19 03:08:57;;;;;;;5.50;4.50;;;;;20.80;101294.00;;;;2078079;28;20220;-72
2023/12/19 03:09:57;;;;;;;6.00;4.80;;;;;20.80;101286.00;;;;2079333;28;20221;-72
2023/12/19 03:10:58;;;;;;;5.30;4.40;;;;;20.80;101289.00;;;;2070407;28;20213;-72
2023/12/19 03:12:06;;;;;;;5.33;4.20;;;;;20.80;101274.00;;;;2079577;28;20224;-72
2023/12/19 03:13:06;;;;;;;5.25;4.30;;;;;20.70;101274.00;;;;2078903;28;20213;-72
2023/12/19 03:14:06;;;;;;;4.50;4.07;;;;;20.70;101273.00;;;;2078530;28;20206;-72
2023/12/19 03:15:07;;;;;;;5.07;4.00;;;;;20.70;101263.00;;;;2079640;28;20669;-72
2023/12/19 03:16:07;;;;;;;4.67;4.27;;;;;20.80;101264.00;;;;2069577;28;20221;-72
2023/12/19 03:17:08;;;;;;;5.60;4.80;;;;;20.70;101264.00;;;;2082988;28;20771;-72
2023/12/19 03:18:08;;;;;;;5.83;4.60;;;;;20.70;101268.00;;;;2079727;28;20347;-72
2023/12/19 03:19:08;;;;;;;6.40;4.27;;;;;20.70;101274.00;;;;2081748;28;20213;-72
2023/12/19 03:20:09;;;;;;;5.10;4.37;;;;;20.70;101268.00;;;;2079674;28;20232;-72
2023/12/19 03:21:09;;;;;;;5.33;4.10;;;;;20.70;101277.00;;;;2068207;28;20237;-72
2023/12/19 03:22:09;;;;;;;6.07;4.67;;;;;20.70;101271.00;;;;2079891;28;20213;-72
2023/12/19 03:23:10;;;;;;;6.70;5.33;;;;;20.70;101267.00;;;;2079574;28;20229;-72
2023/12/19 03:24:10;;;;;;;5.20;4.63;;;;;20.70;101272.00;;;;2079636;28;20213;-72
2023/12/19 03:25:10;;;;;;;7.03;4.50;;;;;20.70;101265.00;;;;2079083;28;20206;-72
2023/12/19 03:26:11;;;;;;;5.73;5.10;;;;;20.70;101240.00;;;;2068829;28;20344;-72
2023/12/19 03:27:11;;;;;;;5.43;4.93;;;;;20.70;101266.00;;;;2079808;28;20236;-72
2023/12/19 03:28:11;;;;;;;5.40;4.13;;;;;20.70;101260.00;;;;2079249;28;20198;-72
2023/12/19 03:29:12;;;;;;;5.63;5.03;;;;;20.70;101252.00;;;;2079421;28;20221;-72
2023/12/19 03:30:12;;;;;;;5.20;4.43;;;;;20.70;101249.00;;;;2078102;28;20697;-72
2023/12/19 03:31:13;;;;;;;5.13;4.50;;;;;20.70;101237.00;;;;2062683;28;20210;-72
2023/12/19 03:32:13;;;;;;;7.27;4.47;;;;;20.70;101247.00;;;;2079955;28;20693;-72
2023/12/19 03:33:14;;;;;;;4.00;3.60;;;;;20.70;101249.00;;;;2079260;28;20690;-72
2023/12/19 03:34:15;;;;;;;4.77;4.27;;;;;20.70;101254.00;;;;2079755;28;20743;-72
2023/12/19 03:35:15;;;;;;;5.40;4.60;;;;;20.70;101249.00;;;;2078899;28;20216;-72
2023/12/19 03:36:15;;;;;;;5.83;4.83;;;;;20.70;101245.00;;;;2070237;28;20495;-72
2023/12/19 03:37:16;;;;;;;5.70;5.07;;;;;20.70;101253.00;;;;2079359;28;20213;-72
2023/12/19 03:38:16;;;;;;;6.70;5.47;;;;;20.70;101250.00;;;;2079384;28;20212;-72
2023/12/19 03:39:17;;;;;;;5.13;4.37;;;;;20.70;101252.00;;;;2079443;28;20206;-72
2023/12/19 03:40:17;;;;;;;6.63;5.37;;;;;20.70;101249.00;;;;2077404;28;20217;-72
2023/12/19 03:41:18;;;;;;;6.07;4.63;;;;;20.70;101252.00;;;;2069171;28;20235;-72
2023/12/19 03:42:18;;;;;;;5.67;4.53;;;;;20.70;101258.00;;;;2078560;28;20229;-69
2023/12/19 03:43:18;;;;;;;6.27;5.00;;;;;20.70;101248.00;;;;2079783;28;20583;-69
2023/12/19 03:44:19;;;;;;;6.73;5.03;;;;;20.70;101255.00;;;;2079110;28;20637;-69
2023/12/19 03:45:19;;;;;;;5.20;4.53;;;;;20.60;101262.00;;;;2076350;28;20728;-69
2023/12/19 03:46:19;;;;;;;5.53;4.87;;;;;20.60;101267.00;;;;2069961;28;20740;-69
2023/12/19 03:47:19;;;;;;;4.90;4.20;;;;;20.60;101270.00;;;;2078985;28;20267;-69
2023/12/19 03:48:20;;;;;;;5.13;4.57;;;;;20.70;101262.00;;;;2079627;28;20245;-70
2023/12/19 03:49:20;;;;;;;6.37;5.10;;;;;20.60;101264.00;;;;2078657;28;20224;-69
2023/12/19 03:50:20;;;;;;;5.70;4.77;;;;;20.60;101263.00;;;;2077670;28;20237;-70
2023/12/19 03:51:21;;;;;;;5.33;4.77;;;;;20.60;101263.00;;;;2076962;28;20234;-69
2023/12/19 03:52:22;;;;;;;5.53;4.70;;;;;20.60;101258.00;;;;2083965;28;20222;-69
2023/12/19 03:53:23;;;;;;;5.85;4.72;;;;;20.60;101257.00;;;;2079569;28;20214;-69
2023/12/19 03:54:24;;;;;;;4.60;4.20;;;;;20.60;101253.00;;;;2079107;28;20210;-69
2023/12/19 03:55:24;;;;;;;5.22;4.53;;;;;20.60;101250.00;;;;2067156;28;20613;-70
2023/12/19 03:56:25;;;;;;;6.23;5.17;;;;;20.60;101242.00;;;;2076128;28;20221;-69
2023/12/19 03:57:26;;;;;;;5.83;4.73;;;;;20.60;101244.00;;;;2078924;28;20213;-69
2023/12/19 03:58:26;;;;;;;4.90;4.38;;;;;20.60;101190.00;;;;2080641;28;20266;-69
2023/12/19 03:59:27;;;;;;;5.10;4.50;;;;;20.60;101234.00;;;;2080645;28;20283;-69
2023/12/19 04:00:27;;;;;;;5.50;4.90;;;;;20.60;101242.00;;;;2071514;28;20268;-69
2023/12/19 04:01:30;;;;;;;5.40;4.83;;;;;20.60;101237.00;;;;2078589;28;20213;-69
2023/12/19 04:02:30;;;;;;;6.30;5.43;;;;;20.60;101234.00;;;;2078500;28;20241;-69
2023/12/19 04:03:30;;;;;;;5.40;4.60;;;;;20.60;101225.00;;;;2081101;28;20270;-69
2023/12/19 04:04:30;;;;;;;5.67;4.30;;;;;20.60;101229.00;;;;2079930;28;20213;-69
2023/12/19 04:05:31;;;;;;;5.77;5.07;;;;;20.60;101227.00;;;;2071346;28;20227;-69
2023/12/19 04:06:31;;;;;;;5.70;4.80;;;;;20.60;101232.00;;;;2080809;28;20217;-69
2023/12/19 04:07:32;;;;;;;6.93;4.93;;;;;20.60;101230.00;;;;2077039;28;20223;-69
2023/12/19 04:08:32;;;;;;;5.73;4.93;;;;;20.60;101225.00;;;;2080160;28;20222;-69
2023/12/19 04:09:33;;;;;;;6.00;4.40;;;;;20.60;101219.00;;;;2079832;28;20542;-69
2023/12/19 04:10:34;;;;;;;6.10;5.05;;;;;20.60;101219.00;;;;2071589;28;20252;-69
2023/12/19 04:11:34;;;;;;;4.80;4.30;;;;;20.60;101212.00;;;;2080203;28;20217;-69
2023/12/19 04:12:34;;;;;;;6.17;4.77;;;;;20.60;101194.00;;;;2081070;28;20241;-69
2023/12/19 04:13:37;;;;;;;6.20;4.37;;;;;20.60;101209.00;;;;2081162;28;20220;-70
2023/12/19 04:14:38;;;;;;;5.50;4.90;;;;;20.60;101203.00;;;;2078491;28;20228;-70
2023/12/19 04:15:38;;;;;;;7.33;4.83;;;;;20.60;101197.00;;;;2069326;28;20228;-70
2023/12/19 04:16:39;;;;;;;6.43;4.93;;;;;20.60;101209.00;;;;2080817;28;20217;-70
2023/12/19 04:17:39;;;;;;;5.60;4.27;;;;;20.60;101204.00;;;;2084273;28;20222;-70
2023/12/19 04:18:39;;;;;;;5.67;4.70;;;;;20.60;101207.00;;;;2079847;28;20638;-69
2023/12/19 04:19:40;;;;;;;5.67;4.40;;;;;20.60;101195.00;;;;2080758;28;20616;-69
2023/12/19 04:20:40;;;;;;;6.83;5.20;;;;;20.60;101181.00;;;;2071693;28;20570;-70
2023/12/19 04:21:41;;;;;;;5.20;4.23;;;;;20.60;101180.00;;;;2080375;28;20626;-69
2023/12/19 04:22:41;;;;;;;5.23;4.63;;;;;20.50;101182.00;;;;2081108;28;20218;-70
2023/12/19 04:23:42;;;;;;;5.27;4.77;;;;;20.60;101188.00;;;;2080517;28;20260;-69
2023/12/19 04:24:42;;;;;;;5.33;4.83;;;;;20.50;101176.00;;;;2081016;28;20565;-69
2023/12/19 04:25:42;;;;;;;4.77;4.27;;;;;20.50;101169.00;;;;2072879;28;20662;-69
2023/12/19 04:26:43;;;;;;;5.27;4.23;;;;;20.50;101182.00;;;;2087380;28;20672;-69
2023/12/19 04:27:43;;;;;;;6.70;4.57;;;;;20.50;101174.00;;;;2084117;28;20221;-70
2023/12/19 04:28:43;;;;;;;6.40;4.70;;;;;20.50;101170.00;;;;2080240;28;20306;-69
2023/12/19 04:29:45;;;;;;;5.77;4.37;;;;;20.50;101170.00;;;;2083429;28;20217;-69
2023/12/19 04:30:46;;;;;;;4.40;4.00;;;;;20.60;101163.00;;;;2070148;28;20222;-69
2023/12/19 04:31:46;;;;;;;5.07;4.27;;;;;20.50;101155.00;;;;2081086;28;20237;-70
2023/12/19 04:32:46;;;;;;;6.37;4.17;;;;;20.50;101155.00;;;;2080122;28;20224;-69
2023/12/19 04:33:47;;;;;;;4.87;4.37;;;;;20.50;101154.00;;;;2082895;28;20213;-69
2023/12/19 04:34:47;;;;;;;6.07;4.50;;;;;20.50;101155.00;;;;2079436;28;20238;-69
2023/12/19 04:35:47;;;;;;;5.37;4.67;;;;;20.50;101148.00;;;;2070582;28;20653;-69
2023/12/19 04:36:48;;;;;;;4.70;4.07;;;;;20.50;101149.00;;;;2083337;28;20549;-69
2023/12/19 04:37:48;;;;;;;4.90;4.40;;;;;20.50;101142.00;;;;2080020;28;20611;-70
2023/12/19 04:38:48;;;;;;;4.37;3.83;;;;;20.50;101135.00;;;;2080843;28;20214;-70
2023/12/19 04:39:48;;;;;;;4.47;3.63;;;;;20.50;101134.00;;;;2078251;28;20244;-69
2023/12/19 04:40:49;;;;;;;4.37;3.83;;;;;20.50;101143.00;;;;2070251;28;20234;-69
2023/12/19 04:41:49;;;;;;;5.00;4.13;;;;;20.50;101134.00;;;;2080251;28;20214;-69
2023/12/19 04:42:49;;;;;;;4.63;4.20;;;;;20.50;101134.00;;;;2078899;28;20700;-70
2023/12/19 04:43:50;;;;;;;4.70;4.00;;;;;20.50;101126.00;;;;2080267;28;20256;-70
2023/12/19 04:44:50;;;;;;;6.10;4.30;;;;;20.50;101130.00;;;;2080217;28;20217;-69
2023/12/19 04:45:50;;;;;;;4.07;3.67;;;;;20.50;101082.00;;;;2070847;28;20232;-69
2023/12/19 04:46:51;;;;;;;4.17;3.70;;;;;20.50;101119.00;;;;2077656;28;20226;-69
2023/12/19 04:47:51;;;;;;;4.13;3.60;;;;;20.50;101137.00;;;;2079686;28;20237;-70
2023/12/19 04:48:52;;;;;;;5.17;4.47;;;;;20.50;101143.00;;;;2079978;28;20217;-69
2023/12/19 04:49:52;;;;;;;5.43;4.10;;;;;20.50;101147.00;;;;2079663;28;20214;-69
2023/12/19 04:50:52;;;;;;;4.37;3.97;;;;;20.50;101154.00;;;;2068584;28;20286;-69
2023/12/19 04:51:53;;;;;;;4.50;3.83;;;;;20.50;101140.00;;;;2080122;28;20213;-69
2023/12/19 04:52:53;;;;;;;4.50;3.73;;;;;20.50;101141.00;;;;2079284;28;20244;-69
2023/12/19 04:53:53;;;;;;;4.17;3.73;;;;;20.40;101144.00;;;;2080807;28;20310;-69
2023/12/19 04:54:55;;;;;;;5.00;3.63;;;;;20.50;101147.00;;;;2079264;28;20554;-69
2023/12/19 04:55:55;;;;;;;4.00;3.60;;;;;20.50;101147.00;;;;2071316;28;20221;-70
2023/12/19 04:56:56;;;;;;;5.17;3.97;;;;;20.50;101147.00;;;;2080409;28;20214;-70
2023/12/19 04:57:56;;;;;;;4.50;3.80;;;;;20.50;101151.00;;;;2080424;28;20275;-69
2023/12/19 04:58:56;;;;;;;4.67;3.70;;;;;20.50;101153.00;;;;2079246;28;20205;-69